sensor_id;sensor_type;location;lat;lon;timestamp;P1;durP1;ratioP1;P2;durP2;ratioP2
47021;SDS011;32779;52.264;6.154;2024-01-11T00:00:36;19.17;;;9.25;;
47021;SDS011;32779;52.264;6.154;2024-01-11T00:03:02;22.67;;;8.85;;
47021;SDS011;32779;52.264;6.154;2024-01-11T00:05:28;19.25;;;9.05;;
47021;SDS011;32779;52.264;6.154;2024-01-11T00:07:54;19.95;;;9.35;;
47021;SDS011;32779;52.264;6.154;2024-01-11T00:10:19;23.13;;;9.38;;
47021;SDS011;32779;52.264;6.154;2024-01-11T00:12:45;18.38;;;9.15;;
47021;SDS011;32779;52.264;6.154;2024-01-11T00:15:11;19.55;;;9.20;;
47021;SDS011;32779;52.264;6.154;2024-01-11T00:17:37;21.70;;;9.52;;
47021;SDS011;32779;52.264;6.154;2024-01-11T00:20:03;19.27;;;9.55;;
47021;SDS011;32779;52.264;6.154;2024-01-11T00:22:28;20.85;;;8.95;;
47021;SDS011;32779;52.264;6.154;2024-01-11T00:24:54;21.98;;;8.57;;
47021;SDS011;32779;52.264;6.154;2024-01-11T00:27:20;19.50;;;8.95;;
47021;SDS011;32779;52.264;6.154;2024-01-11T00:29:45;19.00;;;9.23;;
47021;SDS011;32779;52.264;6.154;2024-01-11T00:32:11;19.52;;;8.60;;
47021;SDS011;32779;52.264;6.154;2024-01-11T00:34:36;20.20;;;9.23;;
47021;SDS011;32779;52.264;6.154;2024-01-11T00:37:03;20.67;;;9.95;;
47021;SDS011;32779;52.264;6.154;2024-01-11T00:39:28;20.58;;;9.15;;
47021;SDS011;32779;52.264;6.154;2024-01-11T00:41:54;21.60;;;10.02;;
47021;SDS011;32779;52.264;6.154;2024-01-11T00:44:20;20.65;;;9.80;;
47021;SDS011;32779;52.264;6.154;2024-01-11T00:46:46;21.88;;;9.90;;
47021;SDS011;32779;52.264;6.154;2024-01-11T00:49:11;20.13;;;9.30;;
47021;SDS011;32779;52.264;6.154;2024-01-11T00:51:37;19.75;;;9.35;;
47021;SDS011;32779;52.264;6.154;2024-01-11T00:54:03;18.40;;;8.95;;
47021;SDS011;32779;52.264;6.154;2024-01-11T00:56:28;21.67;;;9.55;;
47021;SDS011;32779;52.264;6.154;2024-01-11T00:58:54;21.77;;;9.15;;
47021;SDS011;32779;52.264;6.154;2024-01-11T01:01:19;21.67;;;9.75;;
47021;SDS011;32779;52.264;6.154;2024-01-11T01:03:45;19.55;;;8.95;;
47021;SDS011;32779;52.264;6.154;2024-01-11T01:06:11;21.35;;;9.98;;
47021;SDS011;32779;52.264;6.154;2024-01-11T01:08:36;22.92;;;10.93;;
47021;SDS011;32779;52.264;6.154;2024-01-11T01:11:02;23.40;;;10.23;;
47021;SDS011;32779;52.264;6.154;2024-01-11T01:13:28;21.35;;;10.32;;
47021;SDS011;32779;52.264;6.154;2024-01-11T01:15:54;19.85;;;9.98;;
47021;SDS011;32779;52.264;6.154;2024-01-11T01:18:20;21.95;;;9.82;;
47021;SDS011;32779;52.264;6.154;2024-01-11T01:20:45;21.77;;;10.30;;
47021;SDS011;32779;52.264;6.154;2024-01-11T01:23:11;20.38;;;9.45;;
47021;SDS011;32779;52.264;6.154;2024-01-11T01:25:37;25.17;;;11.18;;
47021;SDS011;32779;52.264;6.154;2024-01-11T01:28:02;22.50;;;11.23;;
47021;SDS011;32779;52.264;6.154;2024-01-11T01:30:28;21.95;;;11.32;;
47021;SDS011;32779;52.264;6.154;2024-01-11T01:32:54;24.08;;;11.15;;
47021;SDS011;32779;52.264;6.154;2024-01-11T01:35:21;23.67;;;10.32;;
47021;SDS011;32779;52.264;6.154;2024-01-11T01:37:46;24.58;;;11.27;;
47021;SDS011;32779;52.264;6.154;2024-01-11T01:40:12;24.65;;;11.25;;
47021;SDS011;32779;52.264;6.154;2024-01-11T01:42:44;24.65;;;10.80;;
47021;SDS011;32779;52.264;6.154;2024-01-11T01:45:10;21.88;;;10.68;;
47021;SDS011;32779;52.264;6.154;2024-01-11T01:47:36;27.33;;;11.20;;
47021;SDS011;32779;52.264;6.154;2024-01-11T01:50:04;25.25;;;11.77;;
47021;SDS011;32779;52.264;6.154;2024-01-11T01:52:31;23.90;;;11.77;;
47021;SDS011;32779;52.264;6.154;2024-01-11T01:54:58;25.73;;;12.88;;
47021;SDS011;32779;52.264;6.154;2024-01-11T01:57:24;24.77;;;12.73;;
47021;SDS011;32779;52.264;6.154;2024-01-11T01:59:51;25.77;;;11.95;;
47021;SDS011;32779;52.264;6.154;2024-01-11T02:02:18;26.27;;;12.60;;
47021;SDS011;32779;52.264;6.154;2024-01-11T02:04:44;25.33;;;11.65;;
47021;SDS011;32779;52.264;6.154;2024-01-11T02:09:36;27.17;;;11.02;;
47021;SDS011;32779;52.264;6.154;2024-01-11T02:12:02;25.23;;;12.68;;
47021;SDS011;32779;52.264;6.154;2024-01-11T02:14:28;27.77;;;12.95;;
47021;SDS011;32779;52.264;6.154;2024-01-11T02:16:54;27.88;;;13.00;;
47021;SDS011;32779;52.264;6.154;2024-01-11T02:19:20;29.40;;;13.02;;
47021;SDS011;32779;52.264;6.154;2024-01-11T02:21:46;24.38;;;12.40;;
47021;SDS011;32779;52.264;6.154;2024-01-11T02:24:13;27.23;;;12.65;;
47021;SDS011;32779;52.264;6.154;2024-01-11T02:29:40;27.25;;;12.68;;
47021;SDS011;32779;52.264;6.154;2024-01-11T02:32:06;27.25;;;12.43;;
47021;SDS011;32779;52.264;6.154;2024-01-11T02:34:33;27.30;;;11.95;;
47021;SDS011;32779;52.264;6.154;2024-01-11T02:36:59;26.50;;;12.88;;
47021;SDS011;32779;52.264;6.154;2024-01-11T02:39:25;26.83;;;12.82;;
47021;SDS011;32779;52.264;6.154;2024-01-11T02:41:51;22.55;;;11.85;;
47021;SDS011;32779;52.264;6.154;2024-01-11T02:44:18;27.83;;;12.40;;
47021;SDS011;32779;52.264;6.154;2024-01-11T02:46:44;27.70;;;13.10;;
47021;SDS011;32779;52.264;6.154;2024-01-11T02:49:09;24.38;;;12.20;;
47021;SDS011;32779;52.264;6.154;2024-01-11T02:51:35;32.38;;;13.23;;
47021;SDS011;32779;52.264;6.154;2024-01-11T02:54:01;24.55;;;11.73;;
47021;SDS011;32779;52.264;6.154;2024-01-11T02:56:27;25.38;;;11.95;;
47021;SDS011;32779;52.264;6.154;2024-01-11T02:58:53;26.33;;;12.68;;
47021;SDS011;32779;52.264;6.154;2024-01-11T03:01:18;23.48;;;12.00;;
47021;SDS011;32779;52.264;6.154;2024-01-11T03:03:44;30.00;;;13.00;;
47021;SDS011;32779;52.264;6.154;2024-01-11T03:06:10;27.95;;;13.02;;
47021;SDS011;32779;52.264;6.154;2024-01-11T03:08:35;27.55;;;12.52;;
47021;SDS011;32779;52.264;6.154;2024-01-11T03:11:01;27.05;;;13.45;;
47021;SDS011;32779;52.264;6.154;2024-01-11T03:13:27;30.38;;;14.55;;
47021;SDS011;32779;52.264;6.154;2024-01-11T03:15:52;30.38;;;14.48;;
47021;SDS011;32779;52.264;6.154;2024-01-11T03:18:18;30.75;;;13.85;;
47021;SDS011;32779;52.264;6.154;2024-01-11T03:20:43;28.92;;;14.15;;
47021;SDS011;32779;52.264;6.154;2024-01-11T03:23:09;30.83;;;14.35;;
47021;SDS011;32779;52.264;6.154;2024-01-11T03:25:35;28.73;;;14.18;;
47021;SDS011;32779;52.264;6.154;2024-01-11T03:28:00;30.33;;;14.32;;
47021;SDS011;32779;52.264;6.154;2024-01-11T03:30:26;36.10;;;15.57;;
47021;SDS011;32779;52.264;6.154;2024-01-11T03:32:53;35.67;;;15.77;;
47021;SDS011;32779;52.264;6.154;2024-01-11T03:35:18;31.55;;;15.38;;
47021;SDS011;32779;52.264;6.154;2024-01-11T03:37:44;33.38;;;15.23;;
47021;SDS011;32779;52.264;6.154;2024-01-11T03:40:10;35.53;;;15.98;;
47021;SDS011;32779;52.264;6.154;2024-01-11T03:45:01;27.73;;;13.93;;
47021;SDS011;32779;52.264;6.154;2024-01-11T03:47:28;36.95;;;15.82;;
47021;SDS011;32779;52.264;6.154;2024-01-11T03:49:54;32.88;;;16.02;;
47021;SDS011;32779;52.264;6.154;2024-01-11T03:52:19;34.92;;;16.20;;
47021;SDS011;32779;52.264;6.154;2024-01-11T03:54:45;34.33;;;16.48;;
47021;SDS011;32779;52.264;6.154;2024-01-11T03:57:11;33.30;;;15.63;;
47021;SDS011;32779;52.264;6.154;2024-01-11T03:59:36;34.58;;;16.83;;
47021;SDS011;32779;52.264;6.154;2024-01-11T04:02:02;37.97;;;17.10;;
47021;SDS011;32779;52.264;6.154;2024-01-11T04:04:31;36.90;;;16.92;;
47021;SDS011;32779;52.264;6.154;2024-01-11T04:06:57;34.60;;;17.90;;
47021;SDS011;32779;52.264;6.154;2024-01-11T04:09:23;35.83;;;17.17;;
47021;SDS011;32779;52.264;6.154;2024-01-11T04:11:48;35.95;;;17.55;;
47021;SDS011;32779;52.264;6.154;2024-01-11T04:14:14;32.50;;;17.58;;
47021;SDS011;32779;52.264;6.154;2024-01-11T04:16:40;37.17;;;17.58;;
47021;SDS011;32779;52.264;6.154;2024-01-11T04:19:09;37.70;;;18.38;;
47021;SDS011;32779;52.264;6.154;2024-01-11T04:21:35;37.33;;;18.48;;
47021;SDS011;32779;52.264;6.154;2024-01-11T04:24:03;36.33;;;18.10;;
47021;SDS011;32779;52.264;6.154;2024-01-11T04:26:30;34.08;;;18.73;;
47021;SDS011;32779;52.264;6.154;2024-01-11T04:28:56;39.00;;;18.73;;
47021;SDS011;32779;52.264;6.154;2024-01-11T04:31:24;36.00;;;18.70;;
47021;SDS011;32779;52.264;6.154;2024-01-11T04:33:50;40.05;;;18.88;;
47021;SDS011;32779;52.264;6.154;2024-01-11T04:36:16;42.88;;;19.45;;
47021;SDS011;32779;52.264;6.154;2024-01-11T04:38:41;41.50;;;19.95;;
47021;SDS011;32779;52.264;6.154;2024-01-11T04:41:08;38.80;;;19.23;;
47021;SDS011;32779;52.264;6.154;2024-01-11T04:43:36;38.88;;;19.38;;
47021;SDS011;32779;52.264;6.154;2024-01-11T04:48:44;41.38;;;19.00;;
47021;SDS011;32779;52.264;6.154;2024-01-11T04:51:11;42.47;;;20.50;;
47021;SDS011;32779;52.264;6.154;2024-01-11T04:53:38;49.78;;;21.02;;
47021;SDS011;32779;52.264;6.154;2024-01-11T04:56:06;42.25;;;20.75;;
47021;SDS011;32779;52.264;6.154;2024-01-11T04:58:32;38.03;;;19.00;;
47021;SDS011;32779;52.264;6.154;2024-01-11T05:03:24;41.13;;;19.17;;
47021;SDS011;32779;52.264;6.154;2024-01-11T05:05:50;36.72;;;18.02;;
47021;SDS011;32779;52.264;6.154;2024-01-11T05:08:16;38.35;;;19.13;;
47021;SDS011;32779;52.264;6.154;2024-01-11T05:10:42;36.67;;;18.40;;
47021;SDS011;32779;52.264;6.154;2024-01-11T05:13:07;40.92;;;20.08;;
47021;SDS011;32779;52.264;6.154;2024-01-11T05:15:34;39.33;;;19.35;;
47021;SDS011;32779;52.264;6.154;2024-01-11T05:20:25;36.70;;;18.73;;
47021;SDS011;32779;52.264;6.154;2024-01-11T05:22:51;38.65;;;19.50;;
47021;SDS011;32779;52.264;6.154;2024-01-11T05:25:16;41.10;;;19.90;;
47021;SDS011;32779;52.264;6.154;2024-01-11T05:27:42;38.90;;;19.58;;
47021;SDS011;32779;52.264;6.154;2024-01-11T05:30:08;36.53;;;19.48;;
47021;SDS011;32779;52.264;6.154;2024-01-11T05:32:34;41.35;;;19.75;;
47021;SDS011;32779;52.264;6.154;2024-01-11T05:35:00;41.47;;;20.45;;
47021;SDS011;32779;52.264;6.154;2024-01-11T05:37:25;38.28;;;19.27;;
47021;SDS011;32779;52.264;6.154;2024-01-11T05:39:51;37.40;;;18.50;;
47021;SDS011;32779;52.264;6.154;2024-01-11T05:42:19;40.28;;;19.58;;
47021;SDS011;32779;52.264;6.154;2024-01-11T05:44:44;41.67;;;20.13;;
47021;SDS011;32779;52.264;6.154;2024-01-11T05:47:10;39.95;;;20.40;;
47021;SDS011;32779;52.264;6.154;2024-01-11T05:49:36;39.85;;;18.75;;
47021;SDS011;32779;52.264;6.154;2024-01-11T05:52:01;38.75;;;19.85;;
47021;SDS011;32779;52.264;6.154;2024-01-11T05:54:27;41.47;;;20.20;;
47021;SDS011;32779;52.264;6.154;2024-01-11T05:56:53;43.15;;;22.23;;
47021;SDS011;32779;52.264;6.154;2024-01-11T05:59:21;39.28;;;19.65;;
47021;SDS011;32779;52.264;6.154;2024-01-11T06:01:47;45.63;;;20.67;;
47021;SDS011;32779;52.264;6.154;2024-01-11T06:04:12;45.47;;;20.17;;
47021;SDS011;32779;52.264;6.154;2024-01-11T06:06:39;43.00;;;20.45;;
47021;SDS011;32779;52.264;6.154;2024-01-11T06:09:05;40.20;;;20.70;;
47021;SDS011;32779;52.264;6.154;2024-01-11T06:11:32;45.10;;;21.17;;
47021;SDS011;32779;52.264;6.154;2024-01-11T06:13:58;43.72;;;21.02;;
47021;SDS011;32779;52.264;6.154;2024-01-11T06:16:24;44.63;;;20.90;;
47021;SDS011;32779;52.264;6.154;2024-01-11T06:18:50;45.42;;;22.42;;
47021;SDS011;32779;52.264;6.154;2024-01-11T06:21:15;45.35;;;22.42;;
47021;SDS011;32779;52.264;6.154;2024-01-11T06:26:10;46.15;;;21.75;;
47021;SDS011;32779;52.264;6.154;2024-01-11T06:28:36;46.83;;;22.77;;
47021;SDS011;32779;52.264;6.154;2024-01-11T06:31:01;46.90;;;22.05;;
47021;SDS011;32779;52.264;6.154;2024-01-11T06:33:28;44.63;;;22.90;;
47021;SDS011;32779;52.264;6.154;2024-01-11T06:35:53;49.13;;;24.45;;
47021;SDS011;32779;52.264;6.154;2024-01-11T06:38:19;49.83;;;22.55;;
47021;SDS011;32779;52.264;6.154;2024-01-11T06:40:45;46.15;;;22.75;;
47021;SDS011;32779;52.264;6.154;2024-01-11T06:43:10;49.95;;;25.25;;
47021;SDS011;32779;52.264;6.154;2024-01-11T06:45:36;50.92;;;24.67;;
47021;SDS011;32779;52.264;6.154;2024-01-11T06:48:02;56.75;;;32.78;;
47021;SDS011;32779;52.264;6.154;2024-01-11T06:50:28;53.17;;;30.75;;
47021;SDS011;32779;52.264;6.154;2024-01-11T06:52:54;54.15;;;28.08;;
47021;SDS011;32779;52.264;6.154;2024-01-11T06:55:19;54.75;;;28.40;;
47021;SDS011;32779;52.264;6.154;2024-01-11T06:57:48;51.22;;;27.02;;
47021;SDS011;32779;52.264;6.154;2024-01-11T07:00:13;50.13;;;25.40;;
47021;SDS011;32779;52.264;6.154;2024-01-11T07:02:39;54.35;;;27.60;;
47021;SDS011;32779;52.264;6.154;2024-01-11T07:05:05;54.80;;;26.60;;
47021;SDS011;32779;52.264;6.154;2024-01-11T07:07:31;51.17;;;26.05;;
47021;SDS011;32779;52.264;6.154;2024-01-11T07:09:58;48.80;;;24.60;;
47021;SDS011;32779;52.264;6.154;2024-01-11T07:12:24;50.05;;;23.98;;
47021;SDS011;32779;52.264;6.154;2024-01-11T07:14:50;50.80;;;24.00;;
47021;SDS011;32779;52.264;6.154;2024-01-11T07:19:42;50.03;;;23.70;;
47021;SDS011;32779;52.264;6.154;2024-01-11T07:22:08;49.85;;;24.38;;
47021;SDS011;32779;52.264;6.154;2024-01-11T07:24:34;52.33;;;25.77;;
47021;SDS011;32779;52.264;6.154;2024-01-11T07:27:03;48.38;;;23.48;;
47021;SDS011;32779;52.264;6.154;2024-01-11T07:29:32;49.95;;;24.83;;
47021;SDS011;32779;52.264;6.154;2024-01-11T07:31:59;54.25;;;25.00;;
47021;SDS011;32779;52.264;6.154;2024-01-11T07:34:25;50.05;;;25.10;;
47021;SDS011;32779;52.264;6.154;2024-01-11T07:36:52;53.33;;;26.10;;
47021;SDS011;32779;52.264;6.154;2024-01-11T07:39:17;52.38;;;25.85;;
47021;SDS011;32779;52.264;6.154;2024-01-11T07:41:43;51.97;;;25.65;;
47021;SDS011;32779;52.264;6.154;2024-01-11T07:44:09;50.45;;;25.02;;
47021;SDS011;32779;52.264;6.154;2024-01-11T07:46:35;48.17;;;24.65;;
47021;SDS011;32779;52.264;6.154;2024-01-11T07:51:29;55.38;;;25.15;;
47021;SDS011;32779;52.264;6.154;2024-01-11T07:53:55;52.58;;;25.00;;
47021;SDS011;32779;52.264;6.154;2024-01-11T07:56:21;51.53;;;24.75;;
47021;SDS011;32779;52.264;6.154;2024-01-11T07:58:47;49.67;;;25.23;;
47021;SDS011;32779;52.264;6.154;2024-01-11T08:01:13;54.63;;;25.92;;
47021;SDS011;32779;52.264;6.154;2024-01-11T08:03:40;50.05;;;24.83;;
47021;SDS011;32779;52.264;6.154;2024-01-11T08:06:07;51.90;;;25.90;;
47021;SDS011;32779;52.264;6.154;2024-01-11T08:10:59;53.55;;;25.33;;
47021;SDS011;32779;52.264;6.154;2024-01-11T08:13:24;57.60;;;28.30;;
47021;SDS011;32779;52.264;6.154;2024-01-11T08:15:50;63.55;;;33.97;;
47021;SDS011;32779;52.264;6.154;2024-01-11T08:18:18;62.10;;;30.60;;
47021;SDS011;32779;52.264;6.154;2024-01-11T08:20:44;58.20;;;27.35;;
47021;SDS011;32779;52.264;6.154;2024-01-11T08:23:10;59.55;;;28.92;;
47021;SDS011;32779;52.264;6.154;2024-01-11T08:25:36;60.60;;;29.73;;
47021;SDS011;32779;52.264;6.154;2024-01-11T08:28:02;62.20;;;28.05;;
47021;SDS011;32779;52.264;6.154;2024-01-11T08:30:28;59.95;;;28.08;;
47021;SDS011;32779;52.264;6.154;2024-01-11T08:32:54;65.75;;;28.95;;
47021;SDS011;32779;52.264;6.154;2024-01-11T08:35:20;60.20;;;27.88;;
47021;SDS011;32779;52.264;6.154;2024-01-11T08:37:46;63.53;;;28.52;;
47021;SDS011;32779;52.264;6.154;2024-01-11T08:40:11;59.88;;;26.73;;
47021;SDS011;32779;52.264;6.154;2024-01-11T08:42:37;62.00;;;26.55;;
47021;SDS011;32779;52.264;6.154;2024-01-11T08:45:04;53.83;;;24.33;;
47021;SDS011;32779;52.264;6.154;2024-01-11T08:47:32;59.03;;;24.45;;
47021;SDS011;32779;52.264;6.154;2024-01-11T08:50:03;57.13;;;24.35;;
47021;SDS011;32779;52.264;6.154;2024-01-11T08:52:31;56.15;;;23.15;;
47021;SDS011;32779;52.264;6.154;2024-01-11T08:54:57;56.47;;;24.35;;
47021;SDS011;32779;52.264;6.154;2024-01-11T08:57:23;54.03;;;21.95;;
47021;SDS011;32779;52.264;6.154;2024-01-11T08:59:49;54.53;;;22.75;;
47021;SDS011;32779;52.264;6.154;2024-01-11T09:02:15;54.28;;;21.48;;
47021;SDS011;32779;52.264;6.154;2024-01-11T09:04:40;57.08;;;22.25;;
47021;SDS011;32779;52.264;6.154;2024-01-11T09:07:06;53.65;;;23.13;;
47021;SDS011;32779;52.264;6.154;2024-01-11T09:09:32;55.83;;;23.10;;
47021;SDS011;32779;52.264;6.154;2024-01-11T09:11:57;57.72;;;22.80;;
47021;SDS011;32779;52.264;6.154;2024-01-11T09:14:23;59.65;;;22.83;;
47021;SDS011;32779;52.264;6.154;2024-01-11T09:16:48;55.95;;;23.08;;
47021;SDS011;32779;52.264;6.154;2024-01-11T09:21:40;59.28;;;21.20;;
47021;SDS011;32779;52.264;6.154;2024-01-11T09:24:07;52.72;;;20.15;;
47021;SDS011;32779;52.264;6.154;2024-01-11T09:26:32;61.50;;;22.77;;
47021;SDS011;32779;52.264;6.154;2024-01-11T09:28:58;60.22;;;22.40;;
47021;SDS011;32779;52.264;6.154;2024-01-11T09:31:24;68.65;;;21.38;;
47021;SDS011;32779;52.264;6.154;2024-01-11T09:33:49;61.17;;;21.77;;
47021;SDS011;32779;52.264;6.154;2024-01-11T09:36:15;65.07;;;22.98;;
47021;SDS011;32779;52.264;6.154;2024-01-11T09:38:41;60.45;;;22.40;;
47021;SDS011;32779;52.264;6.154;2024-01-11T09:41:07;56.30;;;22.45;;
47021;SDS011;32779;52.264;6.154;2024-01-11T09:43:34;63.55;;;22.50;;
47021;SDS011;32779;52.264;6.154;2024-01-11T09:46:03;60.83;;;22.23;;
47021;SDS011;32779;52.264;6.154;2024-01-11T09:48:32;61.53;;;21.15;;
47021;SDS011;32779;52.264;6.154;2024-01-11T09:50:59;65.97;;;23.58;;
47021;SDS011;32779;52.264;6.154;2024-01-11T09:53:28;69.35;;;23.70;;
47021;SDS011;32779;52.264;6.154;2024-01-11T09:55:56;69.20;;;23.15;;
47021;SDS011;32779;52.264;6.154;2024-01-11T09:58:23;64.28;;;23.17;;
47021;SDS011;32779;52.264;6.154;2024-01-11T10:00:50;71.80;;;23.60;;
47021;SDS011;32779;52.264;6.154;2024-01-11T10:03:20;78.68;;;24.00;;
47021;SDS011;32779;52.264;6.154;2024-01-11T10:05:48;76.25;;;25.38;;
47021;SDS011;32779;52.264;6.154;2024-01-11T10:08:16;67.80;;;24.40;;
47021;SDS011;32779;52.264;6.154;2024-01-11T10:10:46;68.38;;;24.58;;
47021;SDS011;32779;52.264;6.154;2024-01-11T10:13:12;72.22;;;25.35;;
47021;SDS011;32779;52.264;6.154;2024-01-11T10:15:37;59.40;;;21.27;;
47021;SDS011;32779;52.264;6.154;2024-01-11T10:18:03;66.93;;;23.40;;
47021;SDS011;32779;52.264;6.154;2024-01-11T10:20:29;69.53;;;24.13;;
47021;SDS011;32779;52.264;6.154;2024-01-11T10:22:57;70.32;;;24.35;;
47021;SDS011;32779;52.264;6.154;2024-01-11T10:25:24;70.70;;;24.45;;
47021;SDS011;32779;52.264;6.154;2024-01-11T10:30:16;67.13;;;22.42;;
47021;SDS011;32779;52.264;6.154;2024-01-11T10:32:46;80.65;;;23.98;;
47021;SDS011;32779;52.264;6.154;2024-01-11T10:35:12;69.80;;;23.35;;
47021;SDS011;32779;52.264;6.154;2024-01-11T10:40:05;67.18;;;21.88;;
47021;SDS011;32779;52.264;6.154;2024-01-11T10:42:44;68.35;;;23.23;;
47021;SDS011;32779;52.264;6.154;2024-01-11T10:45:16;77.47;;;25.42;;
47021;SDS011;32779;52.264;6.154;2024-01-11T10:47:50;69.82;;;22.88;;
47021;SDS011;32779;52.264;6.154;2024-01-11T10:50:18;68.35;;;24.13;;
47021;SDS011;32779;52.264;6.154;2024-01-11T10:53:31;78.68;;;25.27;;
47021;SDS011;32779;52.264;6.154;2024-01-11T10:55:37;73.95;;;24.80;;
47021;SDS011;32779;52.264;6.154;2024-01-11T10:58:05;69.22;;;24.02;;
47021;SDS011;32779;52.264;6.154;2024-01-11T11:00:31;73.95;;;23.85;;
47021;SDS011;32779;52.264;6.154;2024-01-11T11:03:00;75.47;;;24.67;;
47021;SDS011;32779;52.264;6.154;2024-01-11T11:05:28;72.28;;;24.85;;
47021;SDS011;32779;52.264;6.154;2024-01-11T11:07:55;79.05;;;25.05;;
47021;SDS011;32779;52.264;6.154;2024-01-11T11:10:21;74.32;;;24.95;;
47021;SDS011;32779;52.264;6.154;2024-01-11T11:12:48;71.57;;;25.17;;
47021;SDS011;32779;52.264;6.154;2024-01-11T11:15:14;69.43;;;24.92;;
47021;SDS011;32779;52.264;6.154;2024-01-11T11:17:40;74.15;;;25.00;;
47021;SDS011;32779;52.264;6.154;2024-01-11T11:20:07;73.07;;;24.75;;
47021;SDS011;32779;52.264;6.154;2024-01-11T11:22:37;74.45;;;24.77;;
47021;SDS011;32779;52.264;6.154;2024-01-11T11:25:10;69.93;;;23.85;;
47021;SDS011;32779;52.264;6.154;2024-01-11T11:27:49;77.57;;;26.10;;
47021;SDS011;32779;52.264;6.154;2024-01-11T11:30:18;73.97;;;26.08;;
47021;SDS011;32779;52.264;6.154;2024-01-11T11:32:45;71.70;;;26.60;;
47021;SDS011;32779;52.264;6.154;2024-01-11T11:35:11;81.32;;;27.10;;
47021;SDS011;32779;52.264;6.154;2024-01-11T11:37:37;66.20;;;24.50;;
47021;SDS011;32779;52.264;6.154;2024-01-11T11:40:04;69.32;;;24.42;;
47021;SDS011;32779;52.264;6.154;2024-01-11T11:42:31;65.43;;;24.58;;
47021;SDS011;32779;52.264;6.154;2024-01-11T11:44:59;66.47;;;23.48;;
47021;SDS011;32779;52.264;6.154;2024-01-11T11:47:24;64.13;;;24.55;;
47021;SDS011;32779;52.264;6.154;2024-01-11T11:52:36;63.63;;;24.30;;
47021;SDS011;32779;52.264;6.154;2024-01-11T11:55:03;66.18;;;24.17;;
47021;SDS011;32779;52.264;6.154;2024-01-11T11:57:30;64.35;;;24.20;;
47021;SDS011;32779;52.264;6.154;2024-01-11T11:59:56;67.75;;;24.85;;
47021;SDS011;32779;52.264;6.154;2024-01-11T12:02:23;67.40;;;23.88;;
47021;SDS011;32779;52.264;6.154;2024-01-11T12:04:53;66.32;;;23.70;;
47021;SDS011;32779;52.264;6.154;2024-01-11T12:07:22;64.75;;;24.35;;
47021;SDS011;32779;52.264;6.154;2024-01-11T12:09:48;66.57;;;24.55;;
47021;SDS011;32779;52.264;6.154;2024-01-11T12:12:16;67.55;;;24.58;;
47021;SDS011;32779;52.264;6.154;2024-01-11T12:14:43;70.28;;;24.20;;
47021;SDS011;32779;52.264;6.154;2024-01-11T12:17:09;62.97;;;23.42;;
47021;SDS011;32779;52.264;6.154;2024-01-11T12:19:34;64.13;;;25.00;;
47021;SDS011;32779;52.264;6.154;2024-01-11T12:22:00;59.10;;;23.08;;
47021;SDS011;32779;52.264;6.154;2024-01-11T12:24:26;62.50;;;23.55;;
47021;SDS011;32779;52.264;6.154;2024-01-11T12:26:52;69.30;;;23.52;;
47021;SDS011;32779;52.264;6.154;2024-01-11T12:29:18;65.28;;;25.30;;
47021;SDS011;32779;52.264;6.154;2024-01-11T12:31:44;62.60;;;24.30;;
47021;SDS011;32779;52.264;6.154;2024-01-11T12:34:13;60.60;;;23.30;;
47021;SDS011;32779;52.264;6.154;2024-01-11T12:36:39;68.68;;;25.00;;
47021;SDS011;32779;52.264;6.154;2024-01-11T12:39:05;58.88;;;23.65;;
47021;SDS011;32779;52.264;6.154;2024-01-11T12:41:31;60.35;;;23.55;;
47021;SDS011;32779;52.264;6.154;2024-01-11T12:43:58;61.50;;;23.70;;
47021;SDS011;32779;52.264;6.154;2024-01-11T12:46:23;54.55;;;22.95;;
47021;SDS011;32779;52.264;6.154;2024-01-11T12:48:49;63.28;;;24.20;;
47021;SDS011;32779;52.264;6.154;2024-01-11T12:51:18;60.88;;;21.95;;
47021;SDS011;32779;52.264;6.154;2024-01-11T12:53:45;57.65;;;23.73;;
47021;SDS011;32779;52.264;6.154;2024-01-11T12:56:12;66.10;;;24.73;;
47021;SDS011;32779;52.264;6.154;2024-01-11T12:58:41;69.30;;;24.63;;
47021;SDS011;32779;52.264;6.154;2024-01-11T13:01:07;58.42;;;22.05;;
47021;SDS011;32779;52.264;6.154;2024-01-11T13:03:33;58.28;;;23.42;;
47021;SDS011;32779;52.264;6.154;2024-01-11T13:06:03;63.42;;;23.83;;
47021;SDS011;32779;52.264;6.154;2024-01-11T13:08:33;56.15;;;24.25;;
47021;SDS011;32779;52.264;6.154;2024-01-11T13:11:05;56.97;;;22.80;;
47021;SDS011;32779;52.264;6.154;2024-01-11T13:13:32;51.10;;;21.85;;
47021;SDS011;32779;52.264;6.154;2024-01-11T13:16:01;57.10;;;23.38;;
47021;SDS011;32779;52.264;6.154;2024-01-11T13:18:39;55.30;;;22.05;;
47021;SDS011;32779;52.264;6.154;2024-01-11T13:21:05;56.70;;;22.83;;
47021;SDS011;32779;52.264;6.154;2024-01-11T13:23:31;66.50;;;24.73;;
47021;SDS011;32779;52.264;6.154;2024-01-11T13:25:57;59.85;;;23.45;;
47021;SDS011;32779;52.264;6.154;2024-01-11T13:28:23;57.65;;;23.50;;
47021;SDS011;32779;52.264;6.154;2024-01-11T13:30:48;52.17;;;22.67;;
47021;SDS011;32779;52.264;6.154;2024-01-11T13:33:14;56.85;;;24.13;;
47021;SDS011;32779;52.264;6.154;2024-01-11T13:35:42;59.10;;;24.40;;
47021;SDS011;32779;52.264;6.154;2024-01-11T13:38:08;51.25;;;21.25;;
47021;SDS011;32779;52.264;6.154;2024-01-11T13:40:33;53.28;;;20.85;;
47021;SDS011;32779;52.264;6.154;2024-01-11T13:43:00;51.03;;;20.08;;
47021;SDS011;32779;52.264;6.154;2024-01-11T13:45:28;52.75;;;20.77;;
47021;SDS011;32779;52.264;6.154;2024-01-11T13:47:56;47.33;;;19.80;;
47021;SDS011;32779;52.264;6.154;2024-01-11T13:50:25;50.80;;;21.10;;
47021;SDS011;32779;52.264;6.154;2024-01-11T13:52:51;54.65;;;20.83;;
47021;SDS011;32779;52.264;6.154;2024-01-11T13:57:46;56.40;;;21.10;;
47021;SDS011;32779;52.264;6.154;2024-01-11T14:00:12;58.00;;;23.65;;
47021;SDS011;32779;52.264;6.154;2024-01-11T14:05:05;57.40;;;20.63;;
47021;SDS011;32779;52.264;6.154;2024-01-11T14:07:38;62.08;;;23.05;;
47021;SDS011;32779;52.264;6.154;2024-01-11T14:10:05;57.00;;;22.30;;
47021;SDS011;32779;52.264;6.154;2024-01-11T14:12:32;58.33;;;22.33;;
47021;SDS011;32779;52.264;6.154;2024-01-11T14:14:57;57.50;;;23.15;;
47021;SDS011;32779;52.264;6.154;2024-01-11T14:17:25;61.03;;;22.55;;
47021;SDS011;32779;52.264;6.154;2024-01-11T14:19:51;58.80;;;23.50;;
47021;SDS011;32779;52.264;6.154;2024-01-11T14:22:16;56.75;;;21.52;;
47021;SDS011;32779;52.264;6.154;2024-01-11T14:24:44;60.42;;;23.50;;
47021;SDS011;32779;52.264;6.154;2024-01-11T14:27:12;58.22;;;22.30;;
47021;SDS011;32779;52.264;6.154;2024-01-11T14:29:39;53.50;;;21.40;;
47021;SDS011;32779;52.264;6.154;2024-01-11T14:32:08;49.50;;;19.88;;
47021;SDS011;32779;52.264;6.154;2024-01-11T14:34:36;55.40;;;21.75;;
47021;SDS011;32779;52.264;6.154;2024-01-11T14:37:03;56.85;;;22.08;;
47021;SDS011;32779;52.264;6.154;2024-01-11T14:39:32;54.88;;;21.92;;
47021;SDS011;32779;52.264;6.154;2024-01-11T14:41:58;53.95;;;21.92;;
47021;SDS011;32779;52.264;6.154;2024-01-11T14:44:26;51.67;;;21.02;;
47021;SDS011;32779;52.264;6.154;2024-01-11T14:46:52;50.03;;;20.10;;
47021;SDS011;32779;52.264;6.154;2024-01-11T14:49:18;53.97;;;20.85;;
47021;SDS011;32779;52.264;6.154;2024-01-11T14:51:43;58.47;;;21.25;;
47021;SDS011;32779;52.264;6.154;2024-01-11T14:54:09;56.20;;;21.63;;
47021;SDS011;32779;52.264;6.154;2024-01-11T14:56:34;58.90;;;22.08;;
47021;SDS011;32779;52.264;6.154;2024-01-11T14:59:00;58.92;;;22.58;;